sensor_id;sensor_type;location;lat;lon;timestamp;P1;durP1;ratioP1;P2;durP2;ratioP2
21046;SDS011;10682;50.874;3.656;2022-08-19T00:01:54;47.70;;;29.38;;
21046;SDS011;10682;50.874;3.656;2022-08-19T00:04:25;52.85;;;29.92;;
21046;SDS011;10682;50.874;3.656;2022-08-19T00:06:57;55.58;;;31.80;;
21046;SDS011;10682;50.874;3.656;2022-08-19T00:09:25;49.63;;;29.58;;
21046;SDS011;10682;50.874;3.656;2022-08-19T00:11:53;49.75;;;27.45;;
21046;SDS011;10682;50.874;3.656;2022-08-19T00:14:23;44.30;;;26.50;;
21046;SDS011;10682;50.874;3.656;2022-08-19T00:16:51;41.78;;;24.40;;
21046;SDS011;10682;50.874;3.656;2022-08-19T00:19:20;39.85;;;23.98;;
21046;SDS011;10682;50.874;3.656;2022-08-19T00:21:49;42.35;;;23.40;;
21046;SDS011;10682;50.874;3.656;2022-08-19T00:24:17;37.65;;;22.83;;
21046;SDS011;10682;50.874;3.656;2022-08-19T00:26:45;33.15;;;20.80;;
21046;SDS011;10682;50.874;3.656;2022-08-19T00:29:13;38.65;;;21.92;;
21046;SDS011;10682;50.874;3.656;2022-08-19T00:31:45;37.00;;;21.27;;
21046;SDS011;10682;50.874;3.656;2022-08-19T00:34:13;37.63;;;20.80;;
21046;SDS011;10682;50.874;3.656;2022-08-19T00:36:41;35.78;;;20.50;;
21046;SDS011;10682;50.874;3.656;2022-08-19T00:39:09;38.53;;;21.45;;
21046;SDS011;10682;50.874;3.656;2022-08-19T00:41:38;35.60;;;20.45;;
21046;SDS011;10682;50.874;3.656;2022-08-19T00:44:27;36.58;;;22.20;;
21046;SDS011;10682;50.874;3.656;2022-08-19T00:46:56;40.55;;;23.30;;
21046;SDS011;10682;50.874;3.656;2022-08-19T00:49:37;42.03;;;24.85;;
21046;SDS011;10682;50.874;3.656;2022-08-19T00:52:08;43.13;;;25.08;;
21046;SDS011;10682;50.874;3.656;2022-08-19T00:54:41;49.03;;;25.73;;
21046;SDS011;10682;50.874;3.656;2022-08-19T00:57:10;42.92;;;25.50;;
21046;SDS011;10682;50.874;3.656;2022-08-19T00:59:42;51.10;;;25.35;;
21046;SDS011;10682;50.874;3.656;2022-08-19T01:02:27;47.22;;;25.38;;
21046;SDS011;10682;50.874;3.656;2022-08-19T01:04:55;47.03;;;24.15;;
21046;SDS011;10682;50.874;3.656;2022-08-19T01:07:23;43.92;;;25.75;;
21046;SDS011;10682;50.874;3.656;2022-08-19T01:09:50;46.45;;;24.48;;
21046;SDS011;10682;50.874;3.656;2022-08-19T01:12:18;45.22;;;25.52;;
21046;SDS011;10682;50.874;3.656;2022-08-19T01:14:45;48.58;;;26.40;;
21046;SDS011;10682;50.874;3.656;2022-08-19T01:17:13;46.58;;;24.95;;
21046;SDS011;10682;50.874;3.656;2022-08-19T01:19:43;49.70;;;24.27;;
21046;SDS011;10682;50.874;3.656;2022-08-19T01:25:19;48.70;;;23.80;;
21046;SDS011;10682;50.874;3.656;2022-08-19T01:27:51;39.08;;;22.70;;
21046;SDS011;10682;50.874;3.656;2022-08-19T01:30:21;45.45;;;22.83;;
21046;SDS011;10682;50.874;3.656;2022-08-19T01:32:52;48.45;;;23.23;;
21046;SDS011;10682;50.874;3.656;2022-08-19T01:35:20;44.45;;;23.73;;
21046;SDS011;10682;50.874;3.656;2022-08-19T01:37:51;48.17;;;25.10;;
21046;SDS011;10682;50.874;3.656;2022-08-19T01:40:23;47.97;;;26.63;;
21046;SDS011;10682;50.874;3.656;2022-08-19T01:42:53;55.60;;;26.02;;
21046;SDS011;10682;50.874;3.656;2022-08-19T01:45:22;48.33;;;24.23;;
21046;SDS011;10682;50.874;3.656;2022-08-19T01:47:51;44.03;;;24.05;;
21046;SDS011;10682;50.874;3.656;2022-08-19T01:50:28;42.95;;;24.02;;
21046;SDS011;10682;50.874;3.656;2022-08-19T01:52:58;39.63;;;22.55;;
21046;SDS011;10682;50.874;3.656;2022-08-19T01:55:32;42.70;;;22.40;;
21046;SDS011;10682;50.874;3.656;2022-08-19T01:58:07;46.70;;;23.17;;
21046;SDS011;10682;50.874;3.656;2022-08-19T02:00:41;44.08;;;22.77;;
21046;SDS011;10682;50.874;3.656;2022-08-19T02:03:09;45.00;;;23.75;;
21046;SDS011;10682;50.874;3.656;2022-08-19T02:05:38;44.38;;;23.27;;
21046;SDS011;10682;50.874;3.656;2022-08-19T02:08:06;49.33;;;22.50;;
21046;SDS011;10682;50.874;3.656;2022-08-19T02:10:37;41.85;;;22.95;;
21046;SDS011;10682;50.874;3.656;2022-08-19T02:13:07;39.60;;;21.50;;
21046;SDS011;10682;50.874;3.656;2022-08-19T02:15:36;45.55;;;20.73;;
21046;SDS011;10682;50.874;3.656;2022-08-19T02:18:03;40.63;;;21.35;;
21046;SDS011;10682;50.874;3.656;2022-08-19T02:20:30;43.90;;;21.55;;
21046;SDS011;10682;50.874;3.656;2022-08-19T02:22:57;40.40;;;20.27;;
21046;SDS011;10682;50.874;3.656;2022-08-19T02:25:24;40.80;;;20.63;;
21046;SDS011;10682;50.874;3.656;2022-08-19T02:27:51;41.80;;;21.15;;
21046;SDS011;10682;50.874;3.656;2022-08-19T02:30:19;38.25;;;20.45;;
21046;SDS011;10682;50.874;3.656;2022-08-19T02:32:46;39.35;;;20.85;;
21046;SDS011;10682;50.874;3.656;2022-08-19T02:35:13;39.42;;;19.40;;
21046;SDS011;10682;50.874;3.656;2022-08-19T02:37:41;35.47;;;20.70;;
21046;SDS011;10682;50.874;3.656;2022-08-19T02:40:29;35.05;;;18.88;;
21046;SDS011;10682;50.874;3.656;2022-08-19T02:43:04;37.92;;;18.83;;
21046;SDS011;10682;50.874;3.656;2022-08-19T02:45:34;36.50;;;19.63;;
21046;SDS011;10682;50.874;3.656;2022-08-19T02:48:07;39.95;;;19.63;;
21046;SDS011;10682;50.874;3.656;2022-08-19T02:50:46;36.97;;;19.80;;
21046;SDS011;10682;50.874;3.656;2022-08-19T02:53:19;40.53;;;19.50;;
21046;SDS011;10682;50.874;3.656;2022-08-19T02:55:52;34.40;;;19.33;;
21046;SDS011;10682;50.874;3.656;2022-08-19T02:58:20;34.08;;;19.00;;
21046;SDS011;10682;50.874;3.656;2022-08-19T03:00:51;35.05;;;17.38;;
21046;SDS011;10682;50.874;3.656;2022-08-19T03:03:21;38.38;;;18.50;;
21046;SDS011;10682;50.874;3.656;2022-08-19T03:05:49;34.45;;;17.13;;
21046;SDS011;10682;50.874;3.656;2022-08-19T03:08:22;34.42;;;17.58;;
21046;SDS011;10682;50.874;3.656;2022-08-19T03:10:51;32.15;;;17.08;;
21046;SDS011;10682;50.874;3.656;2022-08-19T03:13:19;31.45;;;16.73;;
21046;SDS011;10682;50.874;3.656;2022-08-19T03:15:46;35.72;;;17.30;;
21046;SDS011;10682;50.874;3.656;2022-08-19T03:18:14;35.55;;;17.88;;
21046;SDS011;10682;50.874;3.656;2022-08-19T03:20:44;32.33;;;16.67;;
21046;SDS011;10682;50.874;3.656;2022-08-19T03:23:15;32.90;;;17.20;;
21046;SDS011;10682;50.874;3.656;2022-08-19T03:25:45;30.58;;;16.75;;
21046;SDS011;10682;50.874;3.656;2022-08-19T03:28:33;24.95;;;14.93;;
21046;SDS011;10682;50.874;3.656;2022-08-19T03:31:04;27.38;;;15.50;;
21046;SDS011;10682;50.874;3.656;2022-08-19T03:33:57;27.85;;;14.27;;
21046;SDS011;10682;50.874;3.656;2022-08-19T03:36:27;24.27;;;13.77;;
21046;SDS011;10682;50.874;3.656;2022-08-19T03:38:56;26.65;;;14.02;;
21046;SDS011;10682;50.874;3.656;2022-08-19T03:41:33;26.95;;;14.07;;
21046;SDS011;10682;50.874;3.656;2022-08-19T03:44:11;32.78;;;14.23;;
21046;SDS011;10682;50.874;3.656;2022-08-19T03:46:43;27.67;;;14.65;;
21046;SDS011;10682;50.874;3.656;2022-08-19T03:49:15;28.40;;;14.23;;
21046;SDS011;10682;50.874;3.656;2022-08-19T03:51:54;26.73;;;13.85;;
21046;SDS011;10682;50.874;3.656;2022-08-19T03:54:26;25.05;;;13.02;;
21046;SDS011;10682;50.874;3.656;2022-08-19T03:56:54;26.45;;;13.50;;
21046;SDS011;10682;50.874;3.656;2022-08-19T03:59:25;28.02;;;13.52;;
21046;SDS011;10682;50.874;3.656;2022-08-19T04:02:06;27.00;;;12.88;;
21046;SDS011;10682;50.874;3.656;2022-08-19T04:04:40;26.02;;;13.25;;
21046;SDS011;10682;50.874;3.656;2022-08-19T04:07:10;24.33;;;12.75;;
21046;SDS011;10682;50.874;3.656;2022-08-19T04:09:44;29.25;;;13.10;;
21046;SDS011;10682;50.874;3.656;2022-08-19T04:12:13;31.70;;;13.15;;
21046;SDS011;10682;50.874;3.656;2022-08-19T04:14:45;25.48;;;12.88;;
21046;SDS011;10682;50.874;3.656;2022-08-19T04:17:12;23.73;;;12.15;;
21046;SDS011;10682;50.874;3.656;2022-08-19T04:19:40;25.35;;;11.98;;
21046;SDS011;10682;50.874;3.656;2022-08-19T04:22:09;23.48;;;11.18;;
21046;SDS011;10682;50.874;3.656;2022-08-19T04:24:37;24.92;;;11.80;;
21046;SDS011;10682;50.874;3.656;2022-08-19T04:27:04;18.02;;;10.70;;
21046;SDS011;10682;50.874;3.656;2022-08-19T04:29:32;21.77;;;10.98;;
21046;SDS011;10682;50.874;3.656;2022-08-19T04:32:00;23.42;;;10.70;;
21046;SDS011;10682;50.874;3.656;2022-08-19T04:34:34;24.33;;;11.50;;
21046;SDS011;10682;50.874;3.656;2022-08-19T04:37:22;21.33;;;10.27;;
21046;SDS011;10682;50.874;3.656;2022-08-19T04:39:50;22.98;;;11.00;;
21046;SDS011;10682;50.874;3.656;2022-08-19T04:42:36;23.90;;;10.95;;
21046;SDS011;10682;50.874;3.656;2022-08-19T04:45:06;23.65;;;10.48;;
21046;SDS011;10682;50.874;3.656;2022-08-19T04:47:38;21.35;;;10.82;;
21046;SDS011;10682;50.874;3.656;2022-08-19T04:50:23;20.73;;;11.02;;
21046;SDS011;10682;50.874;3.656;2022-08-19T04:52:52;20.35;;;10.55;;
21046;SDS011;10682;50.874;3.656;2022-08-19T04:55:20;21.08;;;10.25;;
21046;SDS011;10682;50.874;3.656;2022-08-19T04:57:47;20.50;;;10.07;;
21046;SDS011;10682;50.874;3.656;2022-08-19T05:00:14;23.50;;;10.75;;
21046;SDS011;10682;50.874;3.656;2022-08-19T05:02:41;32.10;;;10.38;;
21046;SDS011;10682;50.874;3.656;2022-08-19T05:05:08;25.10;;;10.15;;
21046;SDS011;10682;50.874;3.656;2022-08-19T05:07:35;22.70;;;10.25;;
21046;SDS011;10682;50.874;3.656;2022-08-19T05:10:04;22.63;;;10.75;;
21046;SDS011;10682;50.874;3.656;2022-08-19T05:12:32;22.40;;;10.77;;
21046;SDS011;10682;50.874;3.656;2022-08-19T05:15:00;25.73;;;12.10;;
21046;SDS011;10682;50.874;3.656;2022-08-19T05:17:29;21.73;;;11.43;;
21046;SDS011;10682;50.874;3.656;2022-08-19T05:20:04;30.20;;;12.98;;
21046;SDS011;10682;50.874;3.656;2022-08-19T05:22:52;25.00;;;11.77;;
21046;SDS011;10682;50.874;3.656;2022-08-19T05:25:19;26.17;;;11.90;;
21046;SDS011;10682;50.874;3.656;2022-08-19T05:27:48;23.00;;;11.80;;
21046;SDS011;10682;50.874;3.656;2022-08-19T05:30:15;25.38;;;10.65;;
21046;SDS011;10682;50.874;3.656;2022-08-19T05:32:43;24.38;;;11.00;;
21046;SDS011;10682;50.874;3.656;2022-08-19T05:35:10;26.33;;;11.18;;
21046;SDS011;10682;50.874;3.656;2022-08-19T05:37:38;26.05;;;10.57;;
21046;SDS011;10682;50.874;3.656;2022-08-19T05:40:09;28.30;;;11.15;;
21046;SDS011;10682;50.874;3.656;2022-08-19T05:42:36;21.00;;;10.65;;
21046;SDS011;10682;50.874;3.656;2022-08-19T05:45:04;20.38;;;10.38;;
21046;SDS011;10682;50.874;3.656;2022-08-19T05:47:33;23.13;;;10.63;;
21046;SDS011;10682;50.874;3.656;2022-08-19T05:50:07;24.83;;;10.70;;
21046;SDS011;10682;50.874;3.656;2022-08-19T05:52:34;22.85;;;10.25;;
21046;SDS011;10682;50.874;3.656;2022-08-19T05:55:08;24.75;;;9.80;;
21046;SDS011;10682;50.874;3.656;2022-08-19T05:57:36;19.88;;;9.73;;
21046;SDS011;10682;50.874;3.656;2022-08-19T06:00:04;21.95;;;9.88;;
21046;SDS011;10682;50.874;3.656;2022-08-19T06:02:36;21.45;;;10.23;;
21046;SDS011;10682;50.874;3.656;2022-08-19T06:05:04;18.65;;;9.25;;
21046;SDS011;10682;50.874;3.656;2022-08-19T06:07:33;20.27;;;9.75;;
21046;SDS011;10682;50.874;3.656;2022-08-19T06:10:06;19.23;;;9.35;;
21046;SDS011;10682;50.874;3.656;2022-08-19T06:12:35;19.83;;;9.68;;
21046;SDS011;10682;50.874;3.656;2022-08-19T06:15:11;22.80;;;10.70;;
21046;SDS011;10682;50.874;3.656;2022-08-19T06:17:40;24.33;;;10.40;;
21046;SDS011;10682;50.874;3.656;2022-08-19T06:20:11;24.13;;;10.68;;
21046;SDS011;10682;50.874;3.656;2022-08-19T06:22:41;19.92;;;9.75;;
21046;SDS011;10682;50.874;3.656;2022-08-19T06:25:11;21.25;;;10.00;;
21046;SDS011;10682;50.874;3.656;2022-08-19T06:27:40;19.25;;;9.70;;
21046;SDS011;10682;50.874;3.656;2022-08-19T06:30:28;19.92;;;9.98;;
21046;SDS011;10682;50.874;3.656;2022-08-19T06:32:55;22.13;;;10.95;;
21046;SDS011;10682;50.874;3.656;2022-08-19T06:35:22;19.77;;;10.40;;
21046;SDS011;10682;50.874;3.656;2022-08-19T06:37:49;20.35;;;10.43;;
21046;SDS011;10682;50.874;3.656;2022-08-19T06:40:16;22.10;;;11.40;;
21046;SDS011;10682;50.874;3.656;2022-08-19T06:42:43;23.63;;;10.75;;
21046;SDS011;10682;50.874;3.656;2022-08-19T06:45:20;23.27;;;11.15;;
21046;SDS011;10682;50.874;3.656;2022-08-19T06:48:00;20.45;;;10.57;;
21046;SDS011;10682;50.874;3.656;2022-08-19T06:50:28;26.17;;;12.30;;
21046;SDS011;10682;50.874;3.656;2022-08-19T06:52:55;25.85;;;12.05;;
21046;SDS011;10682;50.874;3.656;2022-08-19T06:55:26;24.13;;;12.05;;
21046;SDS011;10682;50.874;3.656;2022-08-19T06:58:01;26.58;;;12.27;;
21046;SDS011;10682;50.874;3.656;2022-08-19T07:00:30;21.13;;;11.05;;
21046;SDS011;10682;50.874;3.656;2022-08-19T07:03:02;22.85;;;11.32;;
21046;SDS011;10682;50.874;3.656;2022-08-19T07:05:38;27.50;;;11.15;;
21046;SDS011;10682;50.874;3.656;2022-08-19T07:08:11;22.67;;;11.50;;
21046;SDS011;10682;50.874;3.656;2022-08-19T07:10:42;26.50;;;12.23;;
21046;SDS011;10682;50.874;3.656;2022-08-19T07:13:11;25.98;;;12.20;;
21046;SDS011;10682;50.874;3.656;2022-08-19T07:15:38;24.58;;;11.80;;
21046;SDS011;10682;50.874;3.656;2022-08-19T07:18:05;22.60;;;11.25;;
21046;SDS011;10682;50.874;3.656;2022-08-19T07:20:36;20.20;;;11.55;;
21046;SDS011;10682;50.874;3.656;2022-08-19T07:23:07;21.80;;;10.70;;
21046;SDS011;10682;50.874;3.656;2022-08-19T07:25:41;24.13;;;11.43;;
21046;SDS011;10682;50.874;3.656;2022-08-19T07:28:08;21.17;;;11.27;;
21046;SDS011;10682;50.874;3.656;2022-08-19T07:30:49;23.73;;;10.65;;
21046;SDS011;10682;50.874;3.656;2022-08-19T07:33:18;20.95;;;10.80;;
21046;SDS011;10682;50.874;3.656;2022-08-19T07:35:45;30.08;;;11.85;;
21046;SDS011;10682;50.874;3.656;2022-08-19T07:38:12;20.60;;;11.07;;
21046;SDS011;10682;50.874;3.656;2022-08-19T07:40:39;23.15;;;11.70;;
21046;SDS011;10682;50.874;3.656;2022-08-19T07:43:12;23.35;;;11.90;;
21046;SDS011;10682;50.874;3.656;2022-08-19T07:45:43;23.25;;;11.73;;
21046;SDS011;10682;50.874;3.656;2022-08-19T07:48:11;23.23;;;11.00;;
21046;SDS011;10682;50.874;3.656;2022-08-19T07:50:38;23.48;;;10.63;;
21046;SDS011;10682;50.874;3.656;2022-08-19T07:53:05;19.15;;;9.30;;
21046;SDS011;10682;50.874;3.656;2022-08-19T07:55:32;17.20;;;8.63;;
21046;SDS011;10682;50.874;3.656;2022-08-19T07:58:08;18.52;;;9.13;;
21046;SDS011;10682;50.874;3.656;2022-08-19T08:00:38;14.88;;;8.27;;
21046;SDS011;10682;50.874;3.656;2022-08-19T08:03:06;20.83;;;8.50;;
21046;SDS011;10682;50.874;3.656;2022-08-19T08:05:34;16.80;;;9.00;;
21046;SDS011;10682;50.874;3.656;2022-08-19T08:08:20;21.90;;;9.38;;
21046;SDS011;10682;50.874;3.656;2022-08-19T08:11:13;18.92;;;9.48;;
21046;SDS011;10682;50.874;3.656;2022-08-19T08:13:45;16.60;;;8.68;;
21046;SDS011;10682;50.874;3.656;2022-08-19T08:16:30;17.88;;;8.52;;
21046;SDS011;10682;50.874;3.656;2022-08-19T08:19:05;18.65;;;7.80;;
21046;SDS011;10682;50.874;3.656;2022-08-19T08:21:48;12.82;;;7.85;;
21046;SDS011;10682;50.874;3.656;2022-08-19T08:24:16;15.75;;;7.88;;
21046;SDS011;10682;50.874;3.656;2022-08-19T08:26:44;17.60;;;8.15;;
21046;SDS011;10682;50.874;3.656;2022-08-19T08:29:17;16.23;;;8.30;;
21046;SDS011;10682;50.874;3.656;2022-08-19T08:31:46;13.27;;;8.45;;
21046;SDS011;10682;50.874;3.656;2022-08-19T08:34:23;15.70;;;7.32;;
21046;SDS011;10682;50.874;3.656;2022-08-19T08:36:50;19.52;;;7.90;;
21046;SDS011;10682;50.874;3.656;2022-08-19T08:39:19;20.33;;;7.50;;
21046;SDS011;10682;50.874;3.656;2022-08-19T08:41:58;12.27;;;7.20;;
21046;SDS011;10682;50.874;3.656;2022-08-19T08:47:31;18.02;;;7.35;;
21046;SDS011;10682;50.874;3.656;2022-08-19T08:52:46;17.38;;;7.63;;
21046;SDS011;10682;50.874;3.656;2022-08-19T08:55:22;11.68;;;7.05;;
21046;SDS011;10682;50.874;3.656;2022-08-19T08:58:16;12.13;;;7.15;;
21046;SDS011;10682;50.874;3.656;2022-08-19T09:00:52;14.10;;;7.90;;
21046;SDS011;10682;50.874;3.656;2022-08-19T09:03:21;12.02;;;7.18;;
21046;SDS011;10682;50.874;3.656;2022-08-19T09:11:25;14.07;;;7.80;;
21046;SDS011;10682;50.874;3.656;2022-08-19T09:17:18;11.23;;;6.80;;
21046;SDS011;10682;50.874;3.656;2022-08-19T09:19:56;11.35;;;6.65;;
21046;SDS011;10682;50.874;3.656;2022-08-19T09:22:35;13.73;;;6.35;;
21046;SDS011;10682;50.874;3.656;2022-08-19T09:25:04;10.05;;;6.63;;
21046;SDS011;10682;50.874;3.656;2022-08-19T09:27:35;12.52;;;6.90;;
21046;SDS011;10682;50.874;3.656;2022-08-19T09:30:16;12.90;;;6.00;;
21046;SDS011;10682;50.874;3.656;2022-08-19T09:32:47;14.13;;;6.28;;
21046;SDS011;10682;50.874;3.656;2022-08-19T09:35:18;10.88;;;5.85;;
21046;SDS011;10682;50.874;3.656;2022-08-19T09:37:53;9.50;;;5.57;;
21046;SDS011;10682;50.874;3.656;2022-08-19T09:40:25;12.70;;;5.18;;
21046;SDS011;10682;50.874;3.656;2022-08-19T09:42:55;9.50;;;5.03;;
21046;SDS011;10682;50.874;3.656;2022-08-19T09:45:35;10.05;;;4.82;;
21046;SDS011;10682;50.874;3.656;2022-08-19T09:48:02;5.63;;;3.88;;
21046;SDS011;10682;50.874;3.656;2022-08-19T09:50:29;8.70;;;4.20;;
21046;SDS011;10682;50.874;3.656;2022-08-19T09:53:00;6.90;;;4.68;;
21046;SDS011;10682;50.874;3.656;2022-08-19T09:55:27;8.75;;;4.45;;
21046;SDS011;10682;50.874;3.656;2022-08-19T09:57:59;6.35;;;4.30;;
21046;SDS011;10682;50.874;3.656;2022-08-19T10:00:27;8.18;;;3.70;;
21046;SDS011;10682;50.874;3.656;2022-08-19T10:02:54;6.22;;;3.33;;
21046;SDS011;10682;50.874;3.656;2022-08-19T10:05:21;8.30;;;3.38;;
21046;SDS011;10682;50.874;3.656;2022-08-19T10:08:08;8.23;;;3.38;;
21046;SDS011;10682;50.874;3.656;2022-08-19T10:10:39;8.75;;;3.10;;
21046;SDS011;10682;50.874;3.656;2022-08-19T10:13:12;6.30;;;2.70;;
21046;SDS011;10682;50.874;3.656;2022-08-19T10:15:42;4.80;;;2.50;;
21046;SDS011;10682;50.874;3.656;2022-08-19T10:18:14;5.00;;;2.47;;
21046;SDS011;10682;50.874;3.656;2022-08-19T10:20:44;4.38;;;2.33;;
21046;SDS011;10682;50.874;3.656;2022-08-19T10:23:16;5.38;;;2.40;;
21046;SDS011;10682;50.874;3.656;2022-08-19T10:25:46;6.68;;;2.90;;
21046;SDS011;10682;50.874;3.656;2022-08-19T10:28:14;8.60;;;2.80;;
21046;SDS011;10682;50.874;3.656;2022-08-19T10:30:44;6.93;;;2.63;;
21046;SDS011;10682;50.874;3.656;2022-08-19T10:33:13;4.70;;;2.15;;
21046;SDS011;10682;50.874;3.656;2022-08-19T10:36:02;6.05;;;2.40;;
21046;SDS011;10682;50.874;3.656;2022-08-19T10:38:36;5.13;;;2.17;;
21046;SDS011;10682;50.874;3.656;2022-08-19T10:41:23;5.95;;;2.70;;
21046;SDS011;10682;50.874;3.656;2022-08-19T10:43:57;5.38;;;2.70;;
21046;SDS011;10682;50.874;3.656;2022-08-19T10:46:32;7.85;;;2.70;;
21046;SDS011;10682;50.874;3.656;2022-08-19T10:49:03;6.38;;;2.80;;
21046;SDS011;10682;50.874;3.656;2022-08-19T10:51:31;4.65;;;2.45;;
21046;SDS011;10682;50.874;3.656;2022-08-19T10:54:18;2.60;;;1.88;;
21046;SDS011;10682;50.874;3.656;2022-08-19T10:56:58;4.47;;;2.05;;
21046;SDS011;10682;50.874;3.656;2022-08-19T10:59:26;4.65;;;2.20;;
21046;SDS011;10682;50.874;3.656;2022-08-19T11:02:01;5.32;;;2.20;;
21046;SDS011;10682;50.874;3.656;2022-08-19T11:04:31;5.93;;;2.20;;
21046;SDS011;10682;50.874;3.656;2022-08-19T11:07:00;4.10;;;1.98;;
21046;SDS011;10682;50.874;3.656;2022-08-19T11:09:29;4.13;;;1.95;;
21046;SDS011;10682;50.874;3.656;2022-08-19T11:11:59;3.90;;;1.65;;
21046;SDS011;10682;50.874;3.656;2022-08-19T11:14:29;3.80;;;2.33;;
21046;SDS011;10682;50.874;3.656;2022-08-19T11:16:59;5.15;;;2.92;;
21046;SDS011;10682;50.874;3.656;2022-08-19T11:19:28;9.07;;;3.72;;
21046;SDS011;10682;50.874;3.656;2022-08-19T11:21:55;7.32;;;4.45;;
21046;SDS011;10682;50.874;3.656;2022-08-19T11:24:25;6.43;;;4.30;;
21046;SDS011;10682;50.874;3.656;2022-08-19T11:26:54;5.03;;;4.10;;
21046;SDS011;10682;50.874;3.656;2022-08-19T11:29:28;7.50;;;4.43;;
21046;SDS011;10682;50.874;3.656;2022-08-19T11:31:55;5.78;;;4.10;;
21046;SDS011;10682;50.874;3.656;2022-08-19T11:34:23;7.85;;;3.97;;
21046;SDS011;10682;50.874;3.656;2022-08-19T11:36:54;7.93;;;4.10;;
21046;SDS011;10682;50.874;3.656;2022-08-19T11:39:27;8.05;;;4.60;;
21046;SDS011;10682;50.874;3.656;2022-08-19T11:41:59;8.45;;;4.50;;
21046;SDS011;10682;50.874;3.656;2022-08-19T11:44:29;6.90;;;4.00;;
21046;SDS011;10682;50.874;3.656;2022-08-19T11:46:56;8.07;;;3.90;;
21046;SDS011;10682;50.874;3.656;2022-08-19T11:49:34;6.90;;;3.30;;
21046;SDS011;10682;50.874;3.656;2022-08-19T11:52:02;6.10;;;3.10;;
21046;SDS011;10682;50.874;3.656;2022-08-19T11:54:29;6.43;;;3.00;;
21046;SDS011;10682;50.874;3.656;2022-08-19T11:56:57;5.13;;;2.65;;
21046;SDS011;10682;50.874;3.656;2022-08-19T11:59:24;6.50;;;2.15;;
21046;SDS011;10682;50.874;3.656;2022-08-19T12:01:52;4.03;;;1.63;;
21046;SDS011;10682;50.874;3.656;2022-08-19T12:04:19;3.72;;;1.45;;
21046;SDS011;10682;50.874;3.656;2022-08-19T12:06:46;4.15;;;1.60;;
21046;SDS011;10682;50.874;3.656;2022-08-19T12:09:14;8.63;;;1.50;;
21046;SDS011;10682;50.874;3.656;2022-08-19T12:11:41;5.07;;;1.50;;
21046;SDS011;10682;50.874;3.656;2022-08-19T12:14:09;4.93;;;2.45;;
21046;SDS011;10682;50.874;3.656;2022-08-19T12:16:40;8.10;;;3.33;;
21046;SDS011;10682;50.874;3.656;2022-08-19T12:19:16;5.88;;;3.65;;
21046;SDS011;10682;50.874;3.656;2022-08-19T12:21:48;7.22;;;3.75;;
21046;SDS011;10682;50.874;3.656;2022-08-19T12:24:15;7.75;;;3.95;;
21046;SDS011;10682;50.874;3.656;2022-08-19T12:26:49;4.45;;;3.28;;
21046;SDS011;10682;50.874;3.656;2022-08-19T12:29:18;6.90;;;3.70;;
21046;SDS011;10682;50.874;3.656;2022-08-19T12:31:49;9.32;;;3.55;;
21046;SDS011;10682;50.874;3.656;2022-08-19T12:34:17;6.07;;;3.60;;
21046;SDS011;10682;50.874;3.656;2022-08-19T12:36:46;6.20;;;3.42;;
21046;SDS011;10682;50.874;3.656;2022-08-19T12:39:15;6.28;;;2.70;;
21046;SDS011;10682;50.874;3.656;2022-08-19T12:41:42;5.13;;;2.95;;
21046;SDS011;10682;50.874;3.656;2022-08-19T12:44:23;7.22;;;3.15;;
21046;SDS011;10682;50.874;3.656;2022-08-19T12:46:54;4.05;;;3.33;;
21046;SDS011;10682;50.874;3.656;2022-08-19T12:49:32;4.90;;;3.00;;
21046;SDS011;10682;50.874;3.656;2022-08-19T12:52:20;15.73;;;3.40;;
21046;SDS011;10682;50.874;3.656;2022-08-19T12:54:49;11.52;;;2.70;;
21046;SDS011;10682;50.874;3.656;2022-08-19T12:57:20;8.43;;;3.17;;
21046;SDS011;10682;50.874;3.656;2022-08-19T12:59:58;5.53;;;3.67;;
21046;SDS011;10682;50.874;3.656;2022-08-19T13:02:41;5.70;;;3.58;;
21046;SDS011;10682;50.874;3.656;2022-08-19T13:05:17;8.05;;;4.00;;
21046;SDS011;10682;50.874;3.656;2022-08-19T13:07:48;6.75;;;4.32;;
21046;SDS011;10682;50.874;3.656;2022-08-19T13:10:19;11.10;;;4.63;;
21046;SDS011;10682;50.874;3.656;2022-08-19T13:12:48;9.32;;;5.15;;
21046;SDS011;10682;50.874;3.656;2022-08-19T13:15:18;8.93;;;4.57;;
21046;SDS011;10682;50.874;3.656;2022-08-19T13:17:49;7.35;;;3.70;;
21046;SDS011;10682;50.874;3.656;2022-08-19T13:20:19;5.93;;;3.80;;
21046;SDS011;10682;50.874;3.656;2022-08-19T13:22:47;3.75;;;2.72;;
21046;SDS011;10682;50.874;3.656;2022-08-19T13:25:15;6.95;;;3.17;;
21046;SDS011;10682;50.874;3.656;2022-08-19T13:27:44;5.38;;;2.90;;
21046;SDS011;10682;50.874;3.656;2022-08-19T13:30:14;8.25;;;3.00;;
21046;SDS011;10682;50.874;3.656;2022-08-19T13:33:01;5.28;;;2.30;;
21046;SDS011;10682;50.874;3.656;2022-08-19T13:35:42;4.75;;;2.17;;
21046;SDS011;10682;50.874;3.656;2022-08-19T13:38:22;9.73;;;2.47;;
21046;SDS011;10682;50.874;3.656;2022-08-19T13:40:50;7.18;;;2.70;;
21046;SDS011;10682;50.874;3.656;2022-08-19T13:43:20;6.05;;;2.47;;
21046;SDS011;10682;50.874;3.656;2022-08-19T13:45:53;4.55;;;1.95;;
21046;SDS011;10682;50.874;3.656;2022-08-19T13:48:23;4.75;;;1.98;;
21046;SDS011;10682;50.874;3.656;2022-08-19T13:50:53;4.55;;;1.90;;
21046;SDS011;10682;50.874;3.656;2022-08-19T13:53:27;6.20;;;2.40;;
21046;SDS011;10682;50.874;3.656;2022-08-19T13:55:53;7.90;;;2.10;;
21046;SDS011;10682;50.874;3.656;2022-08-19T13:58:21;3.88;;;2.00;;
21046;SDS011;10682;50.874;3.656;2022-08-19T14:00:48;4.20;;;1.92;;
21046;SDS011;10682;50.874;3.656;2022-08-19T14:03:15;6.22;;;2.33;;
21046;SDS011;10682;50.874;3.656;2022-08-19T14:05:42;5.03;;;2.15;;
21046;SDS011;10682;50.874;3.656;2022-08-19T14:08:10;5.10;;;2.42;;
21046;SDS011;10682;50.874;3.656;2022-08-19T14:10:38;4.82;;;2.10;;
21046;SDS011;10682;50.874;3.656;2022-08-19T14:13:05;4.97;;;2.65;;
21046;SDS011;10682;50.874;3.656;2022-08-19T14:15:32;3.70;;;2.28;;
21046;SDS011;10682;50.874;3.656;2022-08-19T14:17:59;6.55;;;2.30;;
21046;SDS011;10682;50.874;3.656;2022-08-19T14:20:26;6.13;;;2.53;;
21046;SDS011;10682;50.874;3.656;2022-08-19T14:22:54;6.70;;;2.47;;
21046;SDS011;10682;50.874;3.656;2022-08-19T14:25:23;6.82;;;2.78;;
21046;SDS011;10682;50.874;3.656;2022-08-19T14:27:54;8.45;;;2.90;;
21046;SDS011;10682;50.874;3.656;2022-08-19T14:30:27;7.05;;;2.80;;
21046;SDS011;10682;50.874;3.656;2022-08-19T14:32:58;7.07;;;2.63;;
21046;SDS011;10682;50.874;3.656;2022-08-19T14:35:27;6.15;;;2.10;;
21046;SDS011;10682;50.874;3.656;2022-08-19T14:37:56;7.30;;;2.92;;
21046;SDS011;10682;50.874;3.656;2022-08-19T14:40:25;7.75;;;3.00;;
21046;SDS011;10682;50.874;3.656;2022-08-19T14:42:56;9.27;;;3.08;;
21046;SDS011;10682;50.874;3.656;2022-08-19T14:45:31;5.13;;;2.80;;
21046;SDS011;10682;50.874;3.656;2022-08-19T14:48:07;5.75;;;2.47;;
21046;SDS011;10682;50.874;3.656;2022-08-19T14:50:44;6.53;;;2.92;;
21046;SDS011;10682;50.874;3.656;2022-08-19T14:53:11;7.40;;;3.10;;
21046;SDS011;10682;50.874;3.656;2022-08-19T14:55:44;7.18;;;2.33;;
21046;SDS011;10682;50.874;3.656;2022-08-19T14:58:12;5.82;;;1.92;;
21046;SDS011;10682;50.874;3.656;2022-08-19T15:00:56;4.72;;;2.50;;
21046;SDS011;10682;50.874;3.656;2022-08-19T15:03:25;5.00;;;2.17;;
21046;SDS011;10682;50.874;3.656;2022-08-19T15:05:52;7.40;;;2.05;;
21046;SDS011;10682;50.874;3.656;2022-08-19T15:08:20;6.45;;;2.40;;
21046;SDS011;10682;50.874;3.656;2022-08-19T15:10:51;4.57;;;1.90;;
21046;SDS011;10682;50.874;3.656;2022-08-19T15:13:19;9.95;;;2.83;;
21046;SDS011;10682;50.874;3.656;2022-08-19T15:15:46;9.48;;;3.10;;